Time;durP1;ratioP1;P1;durP2;ratioP2;P2;SDS_P1;SDS_P2;PMS_P1;PMS_P2;Temp;Humidity;BMP_temperature;BMP_pressure;BME280_temperature;BME280_humidity;BME280_pressure;Samples;Min_cycle;Max_cycle;Signal;HPM_P1;HPM_P2
2021/12/07 00:01:26;;;;;;;8.95;3.17;;;5.20;99.90;;;;;;4975926;28;20213;-90
2021/12/07 00:03:53;;;;;;;7.95;3.55;;;5.30;99.90;;;;;;4976375;28;20190;-80
2021/12/07 00:06:19;;;;;;;11.95;3.67;;;5.30;99.90;;;;;;4975562;28;20205;-89
2021/12/07 00:08:45;;;;;;;11.88;2.85;;;5.30;99.90;;;;;;4975812;28;20196;-83
2021/12/07 00:11:12;;;;;;;5.82;2.95;;;5.30;99.90;;;;;;4959035;28;20532;-79
2021/12/07 00:13:39;;;;;;;7.03;3.65;;;5.30;99.90;;;;;;4974627;28;20174;-82
2021/12/07 00:16:08;;;;;;;10.73;3.15;;;5.40;99.90;;;;;;4975726;28;20204;-87
2021/12/07 00:18:34;;;;;;;12.70;3.55;;;5.40;99.90;;;;;;4975781;28;20173;-79
2021/12/07 00:21:00;;;;;;;13.25;3.15;;;5.40;99.90;;;;;;4975606;28;20245;-89
2021/12/07 00:23:26;;;;;;;3.80;3.10;;;5.40;99.90;;;;;;4975813;28;20205;-90
2021/12/07 00:25:51;;;;;;;5.50;2.97;;;5.40;99.90;;;;;;4975793;28;20204;-82
2021/12/07 00:28:20;;;;;;;11.98;3.53;;;5.50;99.90;;;;;;4975451;28;20606;-91
2021/12/07 00:30:48;;;;;;;17.98;4.55;;;5.40;99.90;;;;;;4976021;28;20158;-86
2021/12/07 00:33:29;;;;;;;11.05;3.40;;;5.50;99.90;;;;;;4975610;28;20224;-80
2021/12/07 00:35:55;;;;;;;12.35;3.22;;;5.60;99.90;;;;;;4976541;28;20278;-91
2021/12/07 00:38:27;;;;;;;10.25;3.08;;;5.60;99.90;;;;;;4975496;28;20166;-90
2021/12/07 00:40:55;;;;;;;9.30;3.08;;;5.60;99.90;;;;;;4975726;28;20206;-82
2021/12/07 00:43:21;;;;;;;13.80;2.95;;;5.50;99.90;;;;;;4975589;28;20248;-89
2021/12/07 00:45:51;;;;;;;4.72;2.65;;;5.60;99.90;;;;;;4974561;28;20653;-92
2021/12/07 00:48:17;;;;;;;10.57;3.33;;;5.60;99.90;;;;;;4974532;28;20166;-86
2021/12/07 00:50:46;;;;;;;13.88;3.58;;;5.70;99.90;;;;;;4974121;28;20238;-88
2021/12/07 00:53:12;;;;;;;10.07;3.38;;;5.60;99.90;;;;;;4975259;28;20166;-84
2021/12/07 00:55:48;;;;;;;15.38;3.78;;;5.70;99.90;;;;;;4975504;28;20256;-90
2021/12/07 00:58:23;;;;;;;19.13;4.10;;;5.70;99.90;;;;;;4957869;28;20559;-79
2021/12/07 01:00:57;;;;;;;18.60;3.08;;;5.70;99.90;;;;;;4957676;28;20212;-87
2021/12/07 01:03:24;;;;;;;4.35;2.63;;;5.80;99.90;;;;;;4975050;28;20158;-86
2021/12/07 01:05:53;;;;;;;6.40;3.15;;;5.90;99.90;;;;;;4974972;28;20170;-90
2021/12/07 01:24:51;;;;;;;14.23;2.65;;;5.70;99.90;;;;;;4976968;28;20647;-81
2021/12/07 01:27:19;;;;;;;6.05;2.13;;;5.80;99.90;;;;;;4978747;28;20197;-78
2021/12/07 01:29:48;;;;;;;8.95;2.20;;;5.80;99.90;;;;;;4961473;28;20166;-93
2021/12/07 01:32:40;;;;;;;8.90;2.05;;;5.80;99.90;;;;;;4978817;28;20620;-91
2021/12/07 01:41:02;;;;;;;6.53;1.90;;;5.70;99.90;;;;;;4966854;28;20216;-91
2021/12/07 01:59:52;;;;;;;11.27;4.03;;;5.60;99.90;;;;;;4979336;28;20232;-85
2021/12/07 02:02:21;;;;;;;13.02;3.15;;;5.60;99.90;;;;;;4979090;28;20261;-91
2021/12/07 02:04:47;;;;;;;8.70;3.65;;;5.70;99.90;;;;;;4979028;28;20173;-89
2021/12/07 02:07:13;;;;;;;10.23;2.45;;;5.70;99.90;;;;;;4979405;28;20200;-79
2021/12/07 02:09:50;;;;;;;6.13;2.90;;;5.70;99.90;;;;;;4962552;28;20648;-87
2021/12/07 02:12:18;;;;;;;14.65;3.53;;;5.60;99.90;;;;;;4962481;28;20204;-90
2021/12/07 02:14:44;;;;;;;11.85;2.58;;;5.60;99.90;;;;;;4978721;28;20207;-92
2021/12/07 02:17:16;;;;;;;9.07;3.15;;;5.60;99.90;;;;;;4978978;28;20194;-90
2021/12/07 02:19:42;;;;;;;12.43;3.03;;;5.60;99.90;;;;;;4979131;28;20205;-83
2021/12/07 02:22:10;;;;;;;16.75;2.72;;;5.50;99.90;;;;;;4978986;28;20273;-92
2021/12/07 02:24:37;;;;;;;9.93;2.53;;;5.50;99.90;;;;;;4977613;28;20648;-91
2021/12/07 02:27:03;;;;;;;14.98;2.42;;;5.70;99.90;;;;;;4977892;28;20261;-91
2021/12/07 02:29:29;;;;;;;8.35;2.53;;;5.70;99.90;;;;;;4978439;28;20205;-89
2021/12/07 02:31:57;;;;;;;6.95;1.92;;;5.90;99.90;;;;;;4978317;28;20170;-80
2021/12/07 02:34:24;;;;;;;2.85;1.77;;;5.90;99.90;;;;;;4960773;28;20194;-89
2021/12/07 02:36:50;;;;;;;4.97;2.55;;;5.70;99.90;;;;;;4977517;28;20197;-86
2021/12/07 02:39:16;;;;;;;5.25;2.20;;;5.80;99.90;;;;;;4977374;28;20731;-82
2021/12/07 02:41:43;;;;;;;7.03;1.63;;;5.80;99.90;;;;;;4986712;28;20166;-82
2021/12/07 02:44:10;;;;;;;10.70;2.03;;;5.70;99.90;;;;;;4997639;28;20154;-81
2021/12/07 02:46:37;;;;;;;11.10;2.05;;;5.70;99.90;;;;;;4996576;28;20190;-78
2021/12/07 02:49:05;;;;;;;5.97;1.73;;;5.70;99.90;;;;;;4996976;28;20178;-78
2021/12/07 02:51:30;;;;;;;10.63;1.83;;;5.70;99.90;;;;;;4996788;28;20270;-79
2021/12/07 02:53:57;;;;;;;13.38;2.42;;;5.60;99.90;;;;;;4996679;28;20170;-82
2021/12/07 02:56:23;;;;;;;7.82;1.65;;;5.60;99.90;;;;;;4978076;28;20194;-88
2021/12/07 02:58:49;;;;;;;7.40;1.98;;;5.60;99.90;;;;;;4992668;28;20694;-79
2021/12/07 03:01:24;;;;;;;7.40;1.95;;;5.70;99.90;;;;;;4997160;28;20205;-82
2021/12/07 03:03:59;;;;;;;11.02;1.40;;;5.60;99.90;;;;;;4999504;28;20197;-80
2021/12/07 03:07:20;;;;;;;6.57;1.90;;;5.60;99.90;;;;;;4992623;28;20196;-79
2021/12/07 03:25:59;;;;;;;3.08;1.10;;;5.50;99.90;;;;;;4988052;28;20176;-83
2021/12/07 03:28:25;;;;;;;3.70;1.52;;;5.50;99.90;;;;;;4993331;28;20205;-81
2021/12/07 03:30:51;;;;;;;15.05;2.15;;;5.60;99.90;;;;;;4982911;28;20173;-78
2021/12/07 03:33:16;;;;;;;5.75;1.35;;;5.70;99.90;;;;;;4984036;28;20173;-83
2021/12/07 03:35:42;;;;;;;6.32;1.52;;;5.70;99.90;;;;;;4987174;28;20621;-80
2021/12/07 03:38:09;;;;;;;4.55;2.00;;;5.50;99.90;;;;;;4998032;28;20166;-81
2021/12/07 03:40:35;;;;;;;11.40;1.95;;;5.50;99.90;;;;;;4998223;28;20197;-90
2021/12/07 03:43:02;;;;;;;12.38;1.80;;;5.50;99.90;;;;;;4992256;28;20167;-91
2021/12/07 03:45:28;;;;;;;13.00;1.65;;;5.40;99.90;;;;;;4976187;28;20189;-79
2021/12/07 03:47:56;;;;;;;5.47;1.85;;;5.30;99.90;;;;;;4975758;28;20648;-91
2021/12/07 03:50:22;;;;;;;4.15;1.58;;;5.40;99.90;;;;;;4975758;28;20174;-78
2021/12/07 03:52:51;;;;;;;5.05;1.92;;;5.30;99.90;;;;;;4976232;28;20202;-91
2021/12/07 03:55:17;;;;;;;8.95;1.40;;;5.40;99.90;;;;;;4976112;28;20193;-79
2021/12/07 03:57:43;;;;;;;6.57;1.25;;;5.40;99.90;;;;;;4977970;28;20228;-91
2021/12/07 04:00:12;;;;;;;11.90;2.08;;;5.20;99.90;;;;;;4977618;28;20214;-89
2021/12/07 04:02:40;;;;;;;8.25;1.80;;;5.20;99.90;;;;;;4976963;28;20166;-88
2021/12/07 04:05:14;;;;;;;5.60;1.77;;;5.30;99.90;;;;;;4976256;28;20193;-91
2021/12/07 04:07:41;;;;;;;4.55;1.90;;;5.40;99.90;;;;;;4976232;28;20682;-92
2021/12/07 04:10:13;;;;;;;6.32;1.90;;;5.40;99.90;;;;;;4976079;28;20180;-90
2021/12/07 04:12:39;;;;;;;4.30;0.95;;;5.30;99.90;;;;;;4975943;28;20158;-79
2021/12/07 04:15:07;;;;;;;10.13;1.73;;;5.10;99.90;;;;;;4975940;28;20236;-90
2021/12/07 04:17:34;;;;;;;14.82;1.98;;;5.10;99.90;;;;;;4958495;28;20668;-90
2021/12/07 04:19:59;;;;;;;5.90;1.15;;;4.90;99.90;;;;;;4976223;28;20237;-81
2021/12/07 04:22:25;;;;;;;4.40;1.77;;;4.80;99.90;;;;;;4975903;28;20166;-79
2021/12/07 04:24:51;;;;;;;8.02;1.15;;;4.80;99.90;;;;;;4975381;28;20182;-91
2021/12/07 04:27:17;;;;;;;3.00;1.70;;;5.00;99.90;;;;;;4975800;28;20186;-89
2021/12/07 04:29:43;;;;;;;7.63;1.73;;;4.90;99.90;;;;;;4975608;28;20162;-85
2021/12/07 04:32:09;;;;;;;6.28;1.58;;;4.90;99.90;;;;;;4976002;28;20630;-92
2021/12/07 04:34:34;;;;;;;5.78;1.75;;;4.80;99.90;;;;;;4975668;28;20177;-85
2021/12/07 04:37:00;;;;;;;7.50;1.83;;;4.70;99.90;;;;;;4975293;28;20181;-90
2021/12/07 04:39:25;;;;;;;6.30;1.85;;;4.70;99.90;;;;;;4975013;28;20174;-78
2021/12/07 04:41:52;;;;;;;9.00;2.03;;;4.80;99.90;;;;;;4975649;28;20185;-91
2021/12/07 04:44:21;;;;;;;4.75;2.00;;;4.90;99.90;;;;;;4975446;28;21159;-81
2021/12/07 04:57:41;;;;;;;12.57;2.30;;;5.10;99.90;;;;;;4975286;28;20240;-80
2021/12/07 05:00:16;;;;;;;12.68;1.65;;;5.10;99.90;;;;;;4975126;28;20201;-91
2021/12/07 05:02:45;;;;;;;11.10;1.67;;;5.10;99.90;;;;;;4975081;28;20176;-91
2021/12/07 05:05:13;;;;;;;7.80;2.17;;;5.20;99.90;;;;;;4974636;28;20174;-86
2021/12/07 05:07:45;;;;;;;16.35;2.10;;;5.30;99.90;;;;;;4974542;28;20193;-80
2021/12/07 05:10:19;;;;;;;6.95;1.17;;;5.20;99.90;;;;;;4974816;28;20169;-86
2021/12/07 05:15:25;;;;;;;11.25;1.73;;;4.70;99.90;;;;;;4975056;28;20185;-80
2021/12/07 05:39:40;;;;;;;4.65;2.00;;;4.50;99.90;;;;;;4974462;28;20213;-81
2021/12/07 05:42:10;;;;;;;11.60;2.15;;;4.40;99.90;;;;;;4975425;28;20166;-92
2021/12/07 05:44:36;;;;;;;13.15;1.98;;;4.40;99.90;;;;;;4959013;28;20533;-92
2021/12/07 05:47:07;;;;;;;10.90;2.20;;;4.50;99.90;;;;;;4975386;28;20266;-91
2021/12/07 05:49:34;;;;;;;5.88;1.70;;;4.50;99.90;;;;;;4974612;28;20194;-82
2021/12/07 05:52:01;;;;;;;6.20;1.92;;;4.50;99.90;;;;;;4975588;28;20170;-91
2021/12/07 05:54:26;;;;;;;18.65;2.53;;;4.60;99.90;;;;;;4975384;28;20174;-88
2021/12/07 05:56:52;;;;;;;10.90;2.05;;;4.60;99.90;;;;;;4976042;28;20192;-91
2021/12/07 05:59:17;;;;;;;9.48;2.78;;;4.60;99.90;;;;;;4975649;28;20173;-91
2021/12/07 06:01:46;;;;;;;15.70;2.70;;;4.70;99.90;;;;;;4974873;28;20182;-83
2021/12/07 06:04:12;;;;;;;6.18;1.67;;;4.80;99.90;;;;;;4976286;28;20229;-88
2021/12/07 06:06:39;;;;;;;17.95;2.63;;;4.60;99.90;;;;;;4975383;28;20194;-90
2021/12/07 06:09:05;;;;;;;15.80;2.55;;;4.50;99.90;;;;;;4982444;28;20154;-84
2021/12/07 06:11:31;;;;;;;7.35;2.08;;;4.40;99.90;;;;;;4952888;28;20174;-81
2021/12/07 06:13:56;;;;;;;14.90;2.60;;;4.50;99.90;;;;;;4985429;28;20252;-85
2021/12/07 06:16:24;;;;;;;13.05;2.47;;;4.30;99.90;;;;;;4986613;28;20189;-83
2021/12/07 06:18:50;;;;;;;2.28;1.77;;;4.20;99.90;;;;;;4979985;28;20162;-82
2021/12/07 06:21:16;;;;;;;15.35;2.30;;;4.30;99.90;;;;;;4980130;28;20220;-86
2021/12/07 06:23:42;;;;;;;7.80;1.73;;;4.40;99.90;;;;;;4980789;28;20683;-87
2021/12/07 06:26:08;;;;;;;13.45;2.63;;;4.30;99.90;;;;;;4978692;28;20213;-86
2021/12/07 06:28:34;;;;;;;11.07;1.85;;;4.40;99.90;;;;;;4978581;28;20186;-86
2021/12/07 06:31:00;;;;;;;7.28;2.28;;;4.40;99.90;;;;;;4978179;28;20174;-79
2021/12/07 06:33:27;;;;;;;11.23;2.65;;;4.50;99.90;;;;;;4978303;28;20186;-84
2021/12/07 06:35:57;;;;;;;5.38;1.73;;;4.40;99.90;;;;;;4978411;28;20165;-82
2021/12/07 06:38:24;;;;;;;18.35;2.88;;;4.30;99.90;;;;;;4979206;28;20173;-88
2021/12/07 06:40:50;;;;;;;6.78;1.98;;;4.30;99.90;;;;;;4978430;28;20217;-86
2021/12/07 06:43:16;;;;;;;12.20;2.65;;;4.50;99.90;;;;;;4962400;28;20166;-87
2021/12/07 06:45:42;;;;;;;9.93;2.05;;;4.60;99.90;;;;;;4979531;28;20181;-90
2021/12/07 06:48:08;;;;;;;7.40;2.22;;;4.70;99.90;;;;;;4978610;28;20613;-89
2021/12/07 06:50:35;;;;;;;7.97;2.13;;;4.70;99.90;;;;;;4979128;28;20205;-82
2021/12/07 06:53:01;;;;;;;10.50;2.55;;;4.70;99.90;;;;;;4977554;28;20173;-82
2021/12/07 06:55:27;;;;;;;9.77;2.20;;;4.60;99.90;;;;;;4977347;28;20260;-91
2021/12/07 06:57:53;;;;;;;12.75;2.60;;;4.60;99.90;;;;;;4977579;28;20221;-91
2021/12/07 07:00:19;;;;;;;8.13;2.38;;;4.60;99.90;;;;;;4977432;28;20202;-85
2021/12/07 07:02:45;;;;;;;6.28;1.98;;;4.70;99.90;;;;;;4978212;28;20628;-89
2021/12/07 07:05:11;;;;;;;5.03;1.55;;;4.70;99.90;;;;;;4977633;28;20174;-89
2021/12/07 07:07:38;;;;;;;4.90;1.85;;;4.80;99.90;;;;;;4978264;28;20652;-90
2021/12/07 07:10:06;;;;;;;5.70;2.15;;;4.80;99.90;;;;;;4977828;28;20178;-83
2021/12/07 07:12:32;;;;;;;7.18;2.22;;;4.90;99.90;;;;;;4977244;28;20170;-91
2021/12/07 07:14:58;;;;;;;9.38;3.00;;;4.90;99.90;;;;;;4977663;28;20501;-88
2021/12/07 07:17:23;;;;;;;10.38;2.95;;;4.80;99.90;;;;;;4976736;28;20202;-90
2021/12/07 07:19:49;;;;;;;17.45;2.63;;;4.70;99.90;;;;;;4977411;28;20202;-91
2021/12/07 07:22:15;;;;;;;17.10;2.72;;;4.80;99.90;;;;;;4976879;28;20172;-90
2021/12/07 07:24:42;;;;;;;7.28;3.75;;;4.80;99.90;;;;;;4976921;28;20194;-90
2021/12/07 07:27:08;;;;;;;11.70;2.75;;;4.80;99.90;;;;;;4976828;28;20190;-83
2021/12/07 07:29:34;;;;;;;11.77;3.08;;;4.60;99.90;;;;;;4984380;28;20199;-80
2021/12/07 07:32:00;;;;;;;10.00;2.70;;;4.30;99.90;;;;;;4983958;28;20625;-85
2021/12/07 07:34:26;;;;;;;9.85;2.58;;;4.30;99.90;;;;;;4978998;28;20178;-86
2021/12/07 07:36:52;;;;;;;11.57;2.53;;;4.40;99.90;;;;;;4979890;28;20190;-79
2021/12/07 07:39:17;;;;;;;4.80;2.35;;;4.40;99.90;;;;;;4976769;28;20228;-88
2021/12/07 07:41:43;;;;;;;10.35;3.20;;;4.30;99.90;;;;;;4975653;28;20217;-86
2021/12/07 07:44:08;;;;;;;15.05;2.67;;;4.10;99.90;;;;;;4976996;28;20197;-90
2021/12/07 07:46:34;;;;;;;27.67;3.33;;;4.20;99.90;;;;;;4976641;28;20190;-91
2021/12/07 07:49:00;;;;;;;12.98;3.33;;;4.20;99.90;;;;;;4976550;28;20174;-85
2021/12/07 07:51:27;;;;;;;7.53;2.95;;;4.10;99.90;;;;;;4974706;28;20226;-90
2021/12/07 07:53:54;;;;;;;14.45;3.70;;;4.00;99.90;;;;;;4975967;28;20170;-84
2021/12/07 07:56:20;;;;;;;8.50;2.88;;;4.10;99.90;;;;;;4975181;28;20240;-83
2021/12/07 07:58:46;;;;;;;16.90;3.25;;;4.10;99.90;;;;;;4974865;28;20609;-81
2021/12/07 08:01:12;;;;;;;16.70;3.25;;;3.80;99.90;;;;;;4974608;28;20209;-83
2021/12/07 08:03:38;;;;;;;7.63;2.90;;;3.90;99.90;;;;;;4958002;28;20162;-87
2021/12/07 08:06:04;;;;;;;5.40;3.22;;;3.90;99.90;;;;;;4975630;28;20193;-84
2021/12/07 08:08:29;;;;;;;12.95;3.72;;;4.20;99.90;;;;;;4975862;28;20177;-81
2021/12/07 08:10:55;;;;;;;12.32;2.97;;;4.20;99.90;;;;;;4976530;28;20212;-88
2021/12/07 08:13:21;;;;;;;11.13;3.45;;;4.30;99.90;;;;;;4959072;28;20513;-87
2021/12/07 08:15:49;;;;;;;15.00;3.58;;;4.30;99.90;;;;;;4975961;28;20216;-88
2021/12/07 08:18:15;;;;;;;19.95;3.60;;;4.40;99.90;;;;;;4975866;28;20177;-88
2021/12/07 08:20:43;;;;;;;13.43;3.22;;;4.40;99.90;;;;;;4975636;28;20256;-85
2021/12/07 08:23:09;;;;;;;13.82;3.13;;;4.50;99.90;;;;;;4975717;28;20173;-83
2021/12/07 08:25:38;;;;;;;9.48;2.83;;;4.40;99.90;;;;;;4975586;28;20320;-85
2021/12/07 08:28:07;;;;;;;10.55;2.35;;;4.30;99.90;;;;;;4975435;28;20197;-84
2021/12/07 08:30:34;;;;;;;7.40;3.47;;;4.30;99.90;;;;;;4975171;28;20708;-88
2021/12/07 08:32:59;;;;;;;7.75;2.58;;;4.40;99.90;;;;;;4975115;28;20164;-90
2021/12/07 08:35:25;;;;;;;6.35;2.38;;;4.40;99.90;;;;;;4974469;28;20234;-89
2021/12/07 08:37:51;;;;;;;10.45;2.92;;;4.40;99.90;;;;;;4974885;28;20193;-88
2021/12/07 08:40:23;;;;;;;16.88;3.75;;;4.30;99.90;;;;;;4974957;28;20487;-84
2021/12/07 08:42:51;;;;;;;13.40;2.70;;;4.30;99.90;;;;;;4975907;28;20174;-91
2021/12/07 08:45:18;;;;;;;6.05;3.20;;;4.60;99.90;;;;;;4975478;28;20174;-85
2021/12/07 08:47:46;;;;;;;26.83;4.22;;;4.60;99.90;;;;;;4965699;28;20203;-91
2021/12/07 08:50:17;;;;;;;7.22;2.72;;;4.60;99.90;;;;;;4956026;28;20257;-89
2021/12/07 08:52:43;;;;;;;21.83;3.95;;;4.70;99.90;;;;;;4955745;29;20185;-90
2021/12/07 09:00:24;;;;;;;17.55;3.60;;;4.90;99.90;;;;;;4975376;28;20255;-89
2021/12/07 09:02:49;;;;;;;13.35;4.15;;;5.10;99.90;;;;;;4975222;28;20170;-91
2021/12/07 09:05:17;;;;;;;11.77;3.45;;;5.20;99.90;;;;;;4957172;28;20209;-80
2021/12/07 09:07:44;;;;;;;17.30;3.72;;;5.10;99.90;;;;;;4943675;28;20186;-90
2021/12/07 09:10:11;;;;;;;9.27;3.15;;;5.10;99.90;;;;;;4976736;28;20179;-88
2021/12/07 09:12:36;;;;;;;6.63;3.13;;;5.10;99.90;;;;;;4975169;28;20196;-78
2021/12/07 09:15:03;;;;;;;18.20;3.78;;;5.00;99.90;;;;;;4969597;28;20632;-80
2021/12/07 09:17:29;;;;;;;10.23;2.85;;;4.90;99.90;;;;;;4967588;28;20202;-78
2021/12/07 09:19:55;;;;;;;19.17;4.30;;;5.00;99.90;;;;;;4940769;29;20198;-92
2021/12/07 09:22:21;;;;;;;12.23;3.67;;;5.20;99.90;;;;;;4958031;29;20171;-83
2021/12/07 09:24:48;;;;;;;10.48;3.45;;;5.40;99.90;;;;;;4958703;29;20717;-84
2021/12/07 09:27:14;;;;;;;4.65;2.90;;;5.30;99.90;;;;;;4960525;29;20196;-80
2021/12/07 09:29:39;;;;;;;8.30;3.17;;;5.40;99.90;;;;;;4941432;29;20198;-88
2021/12/07 09:32:05;;;;;;;23.25;3.25;;;5.50;99.90;;;;;;4959103;29;20190;-78
2021/12/07 09:34:31;;;;;;;7.55;3.08;;;5.60;99.90;;;;;;4961462;29;20174;-80
2021/12/07 09:36:57;;;;;;;8.18;3.15;;;5.60;99.90;;;;;;4957673;29;20679;-87
2021/12/07 09:39:23;;;;;;;17.08;3.13;;;5.70;99.90;;;;;;4958726;29;20170;-89
2021/12/07 09:41:49;;;;;;;15.40;3.67;;;5.70;99.90;;;;;;4957329;29;20210;-82
2021/12/07 09:44:15;;;;;;;14.73;3.92;;;5.50;99.90;;;;;;4941126;29;20175;-89
2021/12/07 09:46:41;;;;;;;14.63;3.63;;;5.60;99.90;;;;;;4961197;28;20212;-92
2021/12/07 09:49:09;;;;;;;15.70;2.80;;;5.70;99.90;;;;;;4961453;29;20266;-80
2021/12/07 09:51:36;;;;;;;15.65;2.97;;;5.90;99.90;;;;;;4961861;29;20174;-88
2021/12/07 09:54:04;;;;;;;15.48;2.92;;;6.00;99.90;;;;;;4961481;29;20163;-78
2021/12/07 09:56:30;;;;;;;16.02;3.55;;;5.90;99.90;;;;;;4958555;29;20274;-82
2021/12/07 09:58:58;;;;;;;7.60;2.65;;;5.90;99.90;;;;;;4940980;29;20175;-79
2021/12/07 10:01:25;;;;;;;14.48;2.95;;;5.90;99.90;;;;;;4960901;29;20213;-81
2021/12/07 10:03:52;;;;;;;8.60;2.25;;;6.00;99.90;;;;;;4960321;29;20257;-82
2021/12/07 10:06:18;;;;;;;9.88;2.78;;;6.00;99.90;;;;;;4960552;29;20186;-80
2021/12/07 10:08:45;;;;;;;11.50;1.80;;;6.10;99.90;;;;;;4959603;29;20649;-85
2021/12/07 10:11:12;;;;;;;7.63;2.33;;;6.10;99.90;;;;;;4959983;29;20175;-86
2021/12/07 10:13:43;;;;;;;6.90;2.72;;;6.20;99.90;;;;;;4958497;29;20163;-87
2021/12/07 10:16:11;;;;;;;12.60;2.72;;;6.30;99.90;;;;;;4943550;29;20549;-91
2021/12/07 10:18:39;;;;;;;14.50;2.85;;;6.30;99.90;;;;;;4959936;28;20167;-84
2021/12/07 10:21:12;;;;;;;8.63;2.40;;;6.10;99.90;;;;;;4959792;29;20206;-90
2021/12/07 10:23:51;;;;;;;13.27;2.40;;;6.10;99.90;;;;;;4959183;29;20182;-88
2021/12/07 10:26:32;;;;;;;18.17;3.30;;;6.20;99.90;;;;;;4953865;29;20206;-92
2021/12/07 10:29:01;;;;;;;7.25;2.60;;;6.30;99.90;;;;;;4958824;29;20167;-82
2021/12/07 10:31:34;;;;;;;8.60;2.38;;;6.40;99.90;;;;;;4959041;29;20666;-92
2021/12/07 10:34:17;;;;;;;13.90;2.67;;;6.50;99.90;;;;;;4959097;29;20226;-88
2021/12/07 10:36:56;;;;;;;6.65;2.28;;;6.60;99.90;;;;;;4959442;29;20210;-88
2021/12/07 10:39:43;;;;;;;11.20;2.58;;;6.50;99.90;;;;;;4958300;29;20174;-91
2021/12/07 10:42:15;;;;;;;6.90;2.22;;;6.40;99.90;;;;;;4950810;29;20198;-79
2021/12/07 10:44:41;;;;;;;12.55;2.30;;;6.50;99.90;;;;;;4959734;29;20171;-84
2021/12/07 10:47:09;;;;;;;10.00;2.35;;;6.60;99.90;;;;;;4960191;29;20684;-79
2021/12/07 10:49:46;;;;;;;12.68;2.50;;;6.60;99.90;;;;;;4958301;29;20285;-89
2021/12/07 10:52:32;;;;;;;7.03;1.83;;;6.50;99.90;;;;;;4958644;29;20217;-90
2021/12/07 10:55:13;;;;;;;13.32;2.15;;;6.50;99.90;;;;;;4958415;29;20170;-85
2021/12/07 10:57:54;;;;;;;22.60;3.17;;;6.40;99.90;;;;;;4958629;28;20211;-93
2021/12/07 11:00:40;;;;;;;8.63;2.85;;;6.40;99.90;;;;;;4949098;29;20277;-92
2021/12/07 11:03:10;;;;;;;8.63;1.98;;;6.40;99.90;;;;;;4964236;29;20163;-90
2021/12/07 11:05:50;;;;;;;7.50;2.75;;;6.50;99.90;;;;;;4967905;29;20171;-79
2021/12/07 11:08:19;;;;;;;12.90;2.67;;;6.60;99.90;;;;;;4974183;29;20249;-80
2021/12/07 11:10:48;;;;;;;10.43;2.20;;;6.60;99.90;;;;;;4975197;29;20200;-78
2021/12/07 11:13:25;;;;;;;4.63;2.08;;;6.60;99.90;;;;;;4972298;29;20166;-80
2021/12/07 11:16:00;;;;;;;14.80;3.03;;;6.60;99.90;;;;;;4974119;29;20177;-87
2021/12/07 11:18:27;;;;;;;13.57;2.30;;;6.80;99.90;;;;;;4972906;28;20186;-79
2021/12/07 11:21:00;;;;;;;6.60;2.55;;;6.80;99.90;;;;;;4973382;29;20202;-85
2021/12/07 11:23:42;;;;;;;10.75;2.25;;;6.80;99.90;;;;;;4971288;29;20175;-81
2021/12/07 11:31:44;;;;;;;9.88;1.65;;;7.00;99.90;;;;;;4962793;29;20244;-84
2021/12/07 11:34:14;;;;;;;7.43;2.30;;;7.40;99.90;;;;;;4957599;28;20179;-87
2021/12/07 11:36:53;;;;;;;6.30;2.17;;;7.50;99.90;;;;;;4957375;28;20260;-80
2021/12/07 11:39:54;;;;;;;8.15;2.03;;;7.60;99.90;;;;;;4977877;28;20170;-92
2021/12/07 11:42:29;;;;;;;7.25;2.45;;;7.60;99.90;;;;;;4949810;28;20572;-80
2021/12/07 11:44:56;;;;;;;8.73;2.65;;;7.60;99.90;;;;;;4976288;28;20654;-82
2021/12/07 11:47:39;;;;;;;7.55;2.03;;;7.60;99.90;;;;;;4977341;28;20186;-90
2021/12/07 11:50:25;;;;;;;24.58;2.72;;;7.70;99.90;;;;;;4977066;28;20174;-90
2021/12/07 11:52:58;;;;;;;6.22;2.30;;;7.60;99.90;;;;;;4979336;28;20265;-86
2021/12/07 11:55:25;;;;;;;4.70;2.05;;;7.50;99.90;;;;;;4978628;28;20166;-89
2021/12/07 11:57:51;;;;;;;13.85;2.53;;;7.40;99.90;;;;;;4978318;28;20217;-85
2021/12/07 12:00:21;;;;;;;11.45;2.47;;;7.40;99.90;;;;;;4960453;28;20606;-79
2021/12/07 12:02:47;;;;;;;6.65;2.72;;;7.40;99.90;;;;;;4977832;28;20166;-87
2021/12/07 12:05:13;;;;;;;5.15;2.83;;;7.50;99.90;;;;;;4976563;28;20221;-91
2021/12/07 12:07:41;;;;;;;12.95;2.97;;;7.20;99.90;;;;;;4975869;28;20557;-81
2021/12/07 12:10:09;;;;;;;7.78;3.40;;;7.20;99.90;;;;;;4975305;28;20178;-95
2021/12/07 12:12:49;;;;;;;9.00;2.80;;;7.10;99.90;;;;;;4977460;28;20210;-93
2021/12/07 12:15:26;;;;;;;4.25;3.15;;;7.00;99.90;;;;;;4964201;28;20169;-91
2021/12/07 12:18:19;;;;;;;5.10;2.92;;;7.00;99.90;;;;;;4967842;29;20194;-89
2021/12/07 12:20:47;;;;;;;7.00;2.95;;;7.20;99.90;;;;;;4969974;28;20223;-79
2021/12/07 12:23:16;;;;;;;6.97;3.03;;;7.30;99.90;;;;;;4968571;28;20190;-80
2021/12/07 12:25:41;;;;;;;10.88;3.22;;;7.50;99.90;;;;;;4986773;28;20174;-88
2021/12/07 12:28:07;;;;;;;7.57;3.50;;;7.50;99.90;;;;;;4982447;28;20259;-77
2021/12/07 12:30:37;;;;;;;8.80;3.50;;;7.50;99.90;;;;;;4978804;28;20239;-79
2021/12/07 12:33:12;;;;;;;13.73;3.53;;;7.70;99.90;;;;;;4975931;28;20162;-80
2021/12/07 12:35:49;;;;;;;6.90;3.42;;;7.70;99.90;;;;;;4974562;28;20577;-79
2021/12/07 12:38:15;;;;;;;5.43;2.97;;;7.40;99.90;;;;;;4967891;28;20272;-81
2021/12/07 12:40:40;;;;;;;9.85;3.65;;;7.40;99.90;;;;;;4982441;28;20604;-80
2021/12/07 12:43:06;;;;;;;12.35;3.65;;;7.50;99.90;;;;;;4976352;28;20180;-88
2021/12/07 12:45:38;;;;;;;9.63;3.25;;;7.40;99.90;;;;;;4974907;28;20193;-79
2021/12/07 12:48:17;;;;;;;19.92;3.53;;;7.50;99.90;;;;;;4977019;28;20190;-84
2021/12/07 12:50:42;;;;;;;9.95;3.97;;;7.50;99.90;;;;;;4976011;28;20264;-88
2021/12/07 12:53:12;;;;;;;6.95;3.10;;;7.50;99.90;;;;;;4976181;28;20202;-86
2021/12/07 12:55:43;;;;;;;9.73;3.17;;;7.60;99.90;;;;;;4974910;28;20162;-79
2021/12/07 12:58:13;;;;;;;6.72;3.20;;;7.60;99.90;;;;;;4975750;28;20166;-90
2021/12/07 13:01:10;;;;;;;9.55;2.75;;;7.50;99.90;;;;;;4975951;28;20209;-89
2021/12/07 13:03:53;;;;;;;7.88;2.90;;;7.40;99.90;;;;;;4958484;28;20174;-90
2021/12/07 13:06:53;;;;;;;10.55;2.97;;;7.40;99.90;;;;;;4974663;28;20248;-79
2021/12/07 13:09:18;;;;;;;12.50;3.10;;;7.50;99.90;;;;;;4970065;28;20684;-91
2021/12/07 13:11:52;;;;;;;4.50;2.70;;;7.50;99.90;;;;;;4974823;28;20168;-86
2021/12/07 13:14:24;;;;;;;6.93;3.47;;;7.20;99.90;;;;;;4974220;28;20171;-79
2021/12/07 13:16:54;;;;;;;9.95;3.00;;;7.30;99.90;;;;;;4974195;28;20222;-83
2021/12/07 13:19:21;;;;;;;11.60;2.88;;;7.40;99.90;;;;;;4974684;28;20260;-83
2021/12/07 13:21:48;;;;;;;5.65;2.63;;;7.40;99.90;;;;;;4956271;28;20209;-82
2021/12/07 13:24:19;;;;;;;15.32;3.67;;;7.40;99.90;;;;;;4956505;28;20533;-84
2021/12/07 13:26:52;;;;;;;9.25;3.00;;;7.40;99.90;;;;;;4973840;28;20185;-79
2021/12/07 13:29:24;;;;;;;5.30;2.67;;;7.40;99.90;;;;;;4956138;28;20253;-78
2021/12/07 13:31:56;;;;;;;6.25;2.97;;;7.40;99.90;;;;;;4973408;28;20197;-78
2021/12/07 13:34:30;;;;;;;4.30;2.20;;;7.40;99.90;;;;;;4973746;28;20174;-85
2021/12/07 13:37:02;;;;;;;16.02;2.75;;;7.50;99.90;;;;;;4972409;28;20228;-80
2021/12/07 13:39:39;;;;;;;12.82;2.63;;;7.50;99.90;;;;;;4973840;28;20712;-78
2021/12/07 13:42:16;;;;;;;5.97;2.90;;;7.20;99.90;;;;;;4974520;28;20209;-89
2021/12/07 13:44:51;;;;;;;8.93;2.72;;;7.10;99.90;;;;;;4974350;28;20636;-81
2021/12/07 13:47:27;;;;;;;5.53;2.40;;;7.30;99.90;;;;;;4957169;28;20294;-81
2021/12/07 13:50:05;;;;;;;14.65;2.90;;;7.40;99.90;;;;;;4972336;28;20253;-78
2021/12/07 13:52:33;;;;;;;4.82;3.10;;;7.40;99.90;;;;;;4973476;28;20666;-88
2021/12/07 13:55:04;;;;;;;12.88;2.42;;;7.40;99.90;;;;;;4973462;28;20532;-78
2021/12/07 13:57:34;;;;;;;4.70;2.45;;;7.50;99.90;;;;;;4955631;28;20190;-77
2021/12/07 14:00:03;;;;;;;10.23;2.70;;;7.40;99.90;;;;;;4974118;28;20233;-78
2021/12/07 14:02:29;;;;;;;9.55;2.80;;;7.10;99.90;;;;;;4972854;28;20176;-77
2021/12/07 14:05:12;;;;;;;11.90;2.65;;;7.20;99.90;;;;;;4972964;28;20244;-77
2021/12/07 14:07:38;;;;;;;10.43;3.25;;;7.30;99.90;;;;;;4969680;28;20288;-82
2021/12/07 14:10:12;;;;;;;9.55;3.10;;;7.30;99.90;;;;;;4956100;29;20206;-79
2021/12/07 14:12:38;;;;;;;4.53;2.53;;;7.10;99.90;;;;;;4956575;29;20166;-78
2021/12/07 14:15:14;;;;;;;9.88;2.65;;;7.30;99.90;;;;;;4955761;29;20274;-81
2021/12/07 14:17:44;;;;;;;5.85;2.92;;;7.30;99.90;;;;;;4956548;28;20249;-78
2021/12/07 14:20:14;;;;;;;8.80;3.72;;;7.30;99.90;;;;;;4953239;29;20206;-84
2021/12/07 14:22:45;;;;;;;4.65;1.88;;;7.30;99.90;;;;;;4953381;29;20175;-78
2021/12/07 14:25:16;;;;;;;4.68;2.42;;;7.20;99.90;;;;;;4960755;28;20166;-78
2021/12/07 14:27:45;;;;;;;5.55;2.15;;;7.20;99.90;;;;;;4957334;28;20202;-82
2021/12/07 14:30:14;;;;;;;10.27;2.25;;;7.10;99.90;;;;;;4936271;29;20237;-78
2021/12/07 14:32:44;;;;;;;7.25;2.28;;;7.10;99.90;;;;;;4963732;28;20549;-77
2021/12/07 14:35:10;;;;;;;2.92;1.55;;;7.00;99.90;;;;;;4975135;28;20186;-77
2021/12/07 14:37:36;;;;;;;8.25;2.65;;;6.90;99.90;;;;;;4971777;28;20201;-83
2021/12/07 14:40:07;;;;;;;3.45;2.00;;;7.00;99.90;;;;;;4960175;29;20198;-78
2021/12/07 14:42:33;;;;;;;3.80;1.45;;;7.00;99.90;;;;;;4942467;29;20269;-79
2021/12/07 14:44:59;;;;;;;4.25;2.25;;;7.00;99.90;;;;;;4967396;28;20217;-78